Detall de PIREP

Printer-friendly versionPDF version

[2010/12/17 09:23:00]
Flight IATA:CT3233
Pilot Number:011
Company ICAO:CAT
Aircraft Type:B738/F
PAX:160
Departing Airport: LEMD
Destination Airport: LEPA
Alternate Airport:LEBL
Online: VATSIM
Route:NANDO UW107 CLS UN733 GATOS
Flight Level:FL310
No Slew and time accel
No pause
Crash detect
Detect pilot in Cockpit between each 30 and 45 minutes
09:23 Zero fuel Weight: 135501 Lbs, Fuel Weight: 13818 Lbs
09:23 VATSIM:LEMD 170900Z VRB01KT CAVOK M03/M06 Q1011 NOSIG
09:23 VATSIM:LEPA 170900Z 24016KT 9999 FEW034 10/04 Q1009 NOSIG
09:32 Parking Brakes off
09:41 Take-off
09:41 Take off Weight: 148631 Lbs
09:41 Wind: 110º @ 000 Knots Heading: 141º
09:41 POS N40º 28´ 21´´ W003º 33´ 48´´
09:41 Flaps:5 at 163 Knots
09:41 Gear Up: 166 Knots
09:42 Flaps:4 at 205 Knots
09:42 Flaps:3 at 208 Knots
09:43 Flaps:2 at 221 Knots
09:43 Flaps:1 at 219 Knots
09:43 Flaps:0 at 222 Knots
09:56 Wind:169º@002 Knots Heading: 130º Ground Speed: 404 Knots Altitude 30183 ft
09:56 TOC
09:56 Fuel Weight: 10039 Lb
10:11 Wind:259º@032 Knots Heading: 090º Ground Speed: 485 Knots Altitude 30830 ft
10:15 TOD
10:15 Fuel Weight: 8112 Lb
10:37 Flaps:1 at 266 Knots
10:38 Flaps:2 at 259 Knots
10:39 Flaps:3 at 219 Knots
10:39 Flaps:4 at 214 Knots
10:40 Flaps:5 at 188 Knots
10:40 Flaps:6 at 168 Knots
10:40 Gear Down: 169 Knots
10:41 Flaps:7 at 148 Knots
10:42 Flaps:8 at 142 Knots
10:45 TouchDown:Rate -73 ft/min Speed: 111 Knots
10:45 VATSIM:LEPA 171030Z 24015KT 9999 FEW034 12/05 Q1008 NOSIG
10:45 Land
10:45 Wind:242º@015 Knots
10:45 Heading: 237º
10:45 Flight Duration: 01:04
10:45 Landing Weight: 142050 Lbs
10:45 POS N39º 32´ 45´´ E002º 44´ 30´´
10:47 Parking brakes on
10:47 Block to Block Duration: 01:15
10:47 Final Fuel: 6342 Lbls
10:47 Spent Fuel:7475 Lbls
10:47 Flight Length: 289 NM
10:47 TOD Land Length: 67 NM

Exportar CSV

Powered by Drupal - Modified by Danger4k